Time;durP1;ratioP1;P1;durP2;ratioP2;P2;SDS_P1;SDS_P2;PMS_P1;PMS_P2;Temp;Humidity;BMP_temperature;BMP_pressure;BME280_temperature;BME280_humidity;BME280_pressure;Samples;Min_cycle;Max_cycle;Signal;HPM_P1;HPM_P2
2022/05/13 00:00:07;;;;;;;8.80;2.55;;;15.50;73.00;;;;;;5032669;28;20044;-74
2022/05/13 00:02:33;;;;;;;7.57;2.30;;;15.30;73.30;;;;;;5050175;28;20107;-75
2022/05/13 00:05:00;;;;;;;7.20;2.55;;;15.20;73.70;;;;;;5050543;28;20033;-75
2022/05/13 00:07:26;;;;;;;10.85;2.78;;;15.20;74.20;;;;;;5050098;28;20344;-74
2022/05/13 00:09:57;;;;;;;8.95;2.75;;;15.10;74.20;;;;;;5032453;28;20032;-75
2022/05/13 00:12:28;;;;;;;5.38;2.90;;;15.00;75.30;;;;;;5050006;28;20082;-75
2022/05/13 00:14:54;;;;;;;7.35;3.10;;;14.90;75.20;;;;;;5034642;28;20052;-74
2022/05/13 00:17:21;;;;;;;9.55;2.47;;;14.90;75.70;;;;;;5035958;28;20032;-75
2022/05/13 00:19:47;;;;;;;4.93;2.70;;;14.90;75.90;;;;;;5036468;28;20020;-75
2022/05/13 00:22:13;;;;;;;4.85;2.80;;;14.60;76.70;;;;;;5053678;28;20070;-74
2022/05/13 00:24:39;;;;;;;7.05;3.05;;;14.70;77.10;;;;;;5036185;28;20347;-74
2022/05/13 00:27:05;;;;;;;10.98;2.88;;;14.70;77.50;;;;;;5053592;28;20044;-74
2022/05/13 00:29:31;;;;;;;6.85;2.50;;;14.60;77.60;;;;;;5053527;28;20041;-74
2022/05/13 00:31:57;;;;;;;7.55;2.92;;;14.60;77.80;;;;;;5036218;28;20124;-75
2022/05/13 00:34:22;;;;;;;5.22;3.20;;;14.50;78.00;;;;;;5053496;28;20025;-73
2022/05/13 00:36:48;;;;;;;5.88;2.83;;;14.50;78.80;;;;;;5053374;28;20021;-75
2022/05/13 00:39:14;;;;;;;5.40;2.97;;;14.50;78.90;;;;;;5053355;28;20043;-75
2022/05/13 00:41:40;;;;;;;9.07;3.13;;;14.40;79.70;;;;;;5053416;28;20099;-75
2022/05/13 00:44:07;;;;;;;5.40;2.90;;;14.40;79.80;;;;;;5052912;28;20031;-75
2022/05/13 00:46:32;;;;;;;6.85;2.88;;;14.40;80.10;;;;;;5053684;28;20021;-76
2022/05/13 00:49:01;;;;;;;6.25;2.80;;;14.20;80.20;;;;;;5035518;28;20044;-75
2022/05/13 00:51:32;;;;;;;5.68;2.90;;;14.20;81.10;;;;;;5053193;28;20057;-75
2022/05/13 00:53:58;;;;;;;6.88;3.38;;;14.20;81.20;;;;;;5053118;28;20063;-75
2022/05/13 00:56:24;;;;;;;6.60;2.75;;;14.20;81.30;;;;;;5053281;28;20470;-75
2022/05/13 00:58:56;;;;;;;4.85;2.80;;;14.30;81.70;;;;;;5053879;28;20033;-74
2022/05/13 01:01:22;;;;;;;8.80;2.75;;;14.20;82.10;;;;;;5053150;28;20094;-75
2022/05/13 01:03:49;;;;;;;7.60;2.97;;;14.20;82.50;;;;;;5052706;28;20053;-75
2022/05/13 01:06:21;;;;;;;8.80;3.22;;;14.20;82.60;;;;;;5052719;28;20041;-75
2022/05/13 01:08:47;;;;;;;7.88;3.50;;;14.20;83.10;;;;;;5035205;28;20044;-76
2022/05/13 01:11:16;;;;;;;11.90;3.17;;;14.10;83.40;;;;;;5052711;28;20083;-75
2022/05/13 01:13:45;;;;;;;7.20;2.90;;;14.10;83.80;;;;;;5035569;28;20025;-76
2022/05/13 01:16:11;;;;;;;9.55;3.33;;;14.20;83.10;;;;;;5052750;28;20489;-76
2022/05/13 01:18:39;;;;;;;11.48;3.58;;;14.20;83.00;;;;;;5052827;28;20033;-75
2022/05/13 01:21:08;;;;;;;8.23;3.63;;;14.20;83.10;;;;;;5052516;28;20190;-74
2022/05/13 01:23:40;;;;;;;11.07;3.42;;;14.20;83.50;;;;;;5052738;28;20025;-74
2022/05/13 01:26:14;;;;;;;6.85;3.05;;;14.10;83.90;;;;;;5051354;28;20036;-74
2022/05/13 01:28:46;;;;;;;9.48;3.20;;;14.20;83.90;;;;;;5035487;28;20025;-75
2022/05/13 01:31:14;;;;;;;8.65;3.28;;;14.10;84.00;;;;;;5052537;28;20668;-75
2022/05/13 01:33:41;;;;;;;5.60;2.80;;;14.10;84.90;;;;;;5052365;28;20036;-76
2022/05/13 01:36:09;;;;;;;7.55;3.17;;;14.10;85.00;;;;;;5034582;28;20053;-76
2022/05/13 01:38:37;;;;;;;10.48;3.53;;;14.10;85.00;;;;;;5052035;28;20049;-76
2022/05/13 01:41:06;;;;;;;6.95;3.35;;;14.00;85.40;;;;;;5052166;28;20064;-75
2022/05/13 01:43:33;;;;;;;5.57;3.33;;;14.00;85.80;;;;;;5052601;28;20025;-75
2022/05/13 01:45:58;;;;;;;5.65;3.55;;;14.00;86.30;;;;;;5052202;28;20071;-75
2022/05/13 01:48:26;;;;;;;8.52;3.28;;;14.00;86.60;;;;;;5034451;28;20716;-76
2022/05/13 01:50:52;;;;;;;9.43;3.60;;;13.90;86.80;;;;;;5052041;28;20048;-76
2022/05/13 01:53:18;;;;;;;5.80;2.97;;;14.00;86.60;;;;;;5051768;28;20029;-76
2022/05/13 01:55:43;;;;;;;6.75;3.15;;;13.90;86.80;;;;;;5052427;28;20059;-76
2022/05/13 01:58:15;;;;;;;5.80;3.03;;;13.90;87.30;;;;;;5051873;28;20112;-76
2022/05/13 02:00:42;;;;;;;6.05;3.05;;;13.90;87.00;;;;;;5051827;28;20444;-76
2022/05/13 02:05:52;;;;;;;5.40;2.97;;;14.00;86.70;;;;;;5051892;28;20147;-75
2022/05/13 02:08:18;;;;;;;7.30;3.00;;;14.00;86.60;;;;;;5051924;28;20445;-75
2022/05/13 02:10:44;;;;;;;7.28;3.50;;;14.00;87.10;;;;;;5052187;28;20039;-75
2022/05/13 02:13:11;;;;;;;10.30;2.85;;;14.00;86.90;;;;;;5051541;28;20033;-75
2022/05/13 02:15:37;;;;;;;7.65;3.13;;;14.00;86.90;;;;;;5033631;28;20379;-75
2022/05/13 02:18:03;;;;;;;3.78;2.63;;;14.00;86.30;;;;;;5051340;28;20244;-76
2022/05/13 02:20:28;;;;;;;7.95;3.35;;;14.00;87.10;;;;;;5051477;28;20025;-75
2022/05/13 02:22:54;;;;;;;8.52;3.08;;;14.00;86.80;;;;;;5051886;28;20055;-75
2022/05/13 02:25:20;;;;;;;6.03;3.45;;;14.00;87.00;;;;;;5051552;28;20033;-75
2022/05/13 02:27:45;;;;;;;13.77;4.47;;;14.00;87.20;;;;;;5051346;28;20028;-76
2022/05/13 02:30:12;;;;;;;9.80;3.67;;;13.80;87.80;;;;;;5051254;28;20052;-75
2022/05/13 02:32:38;;;;;;;5.07;3.50;;;13.80;88.20;;;;;;5051078;28;20037;-75
2022/05/13 02:35:05;;;;;;;6.38;3.42;;;13.80;88.10;;;;;;5051257;28;20029;-75
2022/05/13 02:37:31;;;;;;;8.52;2.95;;;13.80;88.20;;;;;;5051368;28;20515;-75
2022/05/13 02:39:56;;;;;;;6.63;3.22;;;13.80;88.00;;;;;;5051290;28;20032;-76
2022/05/13 02:42:22;;;;;;;7.75;3.97;;;13.80;88.10;;;;;;5051297;28;20082;-75
2022/05/13 02:44:48;;;;;;;7.55;3.80;;;13.80;87.80;;;;;;5051041;28;20047;-74
2022/05/13 02:47:13;;;;;;;7.57;3.67;;;13.80;87.60;;;;;;5050956;28;20056;-75
2022/05/13 02:49:39;;;;;;;5.15;3.13;;;13.80;87.50;;;;;;5051360;28;20060;-76
2022/05/13 02:52:05;;;;;;;6.90;3.58;;;13.80;87.50;;;;;;5050763;28;20083;-75
2022/05/13 02:54:31;;;;;;;6.28;3.20;;;13.80;88.20;;;;;;5050995;28;20362;-75
2022/05/13 02:56:56;;;;;;;4.60;3.30;;;13.70;88.40;;;;;;5050955;28;20037;-76
2022/05/13 02:59:22;;;;;;;9.43;3.58;;;13.70;88.70;;;;;;5049853;28;20142;-75
2022/05/13 03:01:47;;;;;;;5.30;3.13;;;13.70;88.60;;;;;;5051192;28;20111;-76
2022/05/13 03:04:13;;;;;;;5.70;3.78;;;13.70;89.00;;;;;;5033069;28;20032;-75
2022/05/13 03:06:38;;;;;;;8.75;3.78;;;13.70;88.80;;;;;;5033245;28;20017;-75
2022/05/13 03:09:04;;;;;;;8.02;3.42;;;13.60;88.90;;;;;;5050809;28;20451;-76
2022/05/13 03:11:30;;;;;;;9.65;3.67;;;13.60;89.00;;;;;;5033205;28;20434;-76
2022/05/13 03:13:55;;;;;;;4.32;3.47;;;13.50;89.50;;;;;;5051496;28;20032;-76
2022/05/13 03:16:23;;;;;;;7.28;3.70;;;13.40;90.00;;;;;;5050619;28;20102;-76
2022/05/13 03:18:55;;;;;;;7.13;3.95;;;13.50;89.80;;;;;;5050702;28;20025;-77
2022/05/13 03:21:22;;;;;;;11.35;3.90;;;13.60;89.70;;;;;;5050593;28;20089;-76
2022/05/13 03:23:48;;;;;;;8.20;4.30;;;13.60;90.00;;;;;;5050431;28;20052;-76
2022/05/13 03:26:16;;;;;;;5.93;3.70;;;13.60;89.90;;;;;;5050549;28;20257;-75
2022/05/13 03:28:42;;;;;;;7.15;4.07;;;13.50;90.00;;;;;;5050933;28;20071;-75
2022/05/13 03:31:08;;;;;;;10.45;3.83;;;13.50;90.20;;;;;;5050548;28;20026;-75
2022/05/13 03:33:34;;;;;;;7.47;3.92;;;13.50;90.30;;;;;;5050376;28;20033;-75
2022/05/13 03:36:00;;;;;;;8.95;4.05;;;13.50;90.10;;;;;;5050385;28;20369;-75
2022/05/13 03:38:26;;;;;;;8.93;4.25;;;13.40;90.30;;;;;;5050324;28;20072;-75
2022/05/13 03:40:51;;;;;;;9.23;4.97;;;13.40;90.40;;;;;;5050827;28;20018;-76
2022/05/13 03:43:17;;;;;;;6.38;4.18;;;13.30;90.60;;;;;;5050350;28;20446;-75
2022/05/13 03:45:43;;;;;;;5.38;3.85;;;13.40;90.40;;;;;;5050178;28;20029;-76
2022/05/13 03:48:09;;;;;;;9.95;4.10;;;13.30;90.40;;;;;;5050316;28;20373;-76
2022/05/13 03:50:37;;;;;;;7.35;3.70;;;13.30;90.30;;;;;;5053927;28;20039;-75
2022/05/13 03:53:03;;;;;;;14.75;4.10;;;13.30;90.40;;;;;;5036832;28;20025;-75
2022/05/13 03:55:30;;;;;;;9.40;4.05;;;13.30;90.40;;;;;;5054673;28;20018;-77
2022/05/13 03:57:56;;;;;;;8.80;4.38;;;13.40;90.10;;;;;;5054116;28;20113;-76
2022/05/13 04:00:22;;;;;;;8.15;4.00;;;13.40;90.40;;;;;;5054172;28;20036;-75
2022/05/13 04:02:47;;;;;;;7.60;3.80;;;13.30;90.60;;;;;;5054140;28;20029;-75
2022/05/13 04:10:42;;;;;;;8.00;4.22;;;13.30;90.70;;;;;;5054064;28;20043;-75
2022/05/13 04:16:04;;;;;;;10.65;4.78;;;13.20;91.00;;;;;;5053620;28;20140;-75
2022/05/13 04:18:50;;;;;;;11.57;4.25;;;13.20;91.00;;;;;;5053800;28;20029;-75
2022/05/13 04:21:19;;;;;;;7.18;3.63;;;13.20;91.10;;;;;;5053565;28;20041;-75
2022/05/13 04:23:48;;;;;;;9.60;3.85;;;13.20;90.70;;;;;;5053567;28;20029;-74
2022/05/13 04:26:14;;;;;;;10.88;3.30;;;13.40;90.30;;;;;;5053628;28;20466;-74
2022/05/13 04:28:41;;;;;;;10.65;4.03;;;13.50;90.10;;;;;;5053953;28;20378;-75
2022/05/13 04:31:08;;;;;;;11.35;3.78;;;13.50;88.90;;;;;;5035852;28;20033;-75
2022/05/13 04:33:33;;;;;;;12.52;3.88;;;13.70;88.60;;;;;;5053726;28;20037;-76
2022/05/13 04:35:59;;;;;;;8.50;4.00;;;13.70;88.70;;;;;;5053625;28;20037;-75
2022/05/13 04:38:25;;;;;;;8.45;3.47;;;13.80;88.00;;;;;;5035764;28;20044;-76
2022/05/13 04:40:50;;;;;;;8.07;4.45;;;13.90;87.90;;;;;;5053961;28;20029;-75
2022/05/13 04:43:16;;;;;;;8.15;4.40;;;13.90;87.40;;;;;;5053235;28;20029;-76
2022/05/13 04:45:42;;;;;;;12.73;5.95;;;14.00;87.30;;;;;;5053177;28;20025;-76
2022/05/13 04:48:21;;;;;;;16.83;7.10;;;14.10;86.90;;;;;;5035681;28;20021;-75
2022/05/13 04:50:58;;;;;;;8.55;4.90;;;14.10;86.70;;;;;;5053214;28;20029;-75
2022/05/13 04:53:29;;;;;;;10.30;4.13;;;14.20;86.60;;;;;;5035368;28;20098;-75
2022/05/13 04:55:55;;;;;;;12.95;4.97;;;14.30;87.00;;;;;;5035887;28;20033;-75
2022/05/13 04:58:22;;;;;;;12.00;4.78;;;14.40;86.20;;;;;;5053027;28;20032;-75
2022/05/13 05:00:50;;;;;;;12.98;4.57;;;14.40;86.20;;;;;;5035106;28;20029;-76
2022/05/13 05:03:16;;;;;;;;;;;14.50;85.90;;;;;;5053330;28;20114;-77
2022/05/13 05:05:43;;;;;;;7.75;4.55;;;14.60;85.60;;;;;;5052762;28;19924;-75
2022/05/13 05:08:11;;;;;;;11.50;4.55;;;14.60;85.10;;;;;;5051835;28;20087;-75
2022/05/13 05:10:38;;;;;;;10.63;3.90;;;14.70;84.80;;;;;;5053231;28;20021;-76
2022/05/13 05:13:07;;;;;;;12.35;4.43;;;14.70;84.50;;;;;;5052765;28;20044;-75
2022/05/13 05:15:32;;;;;;;13.27;5.10;;;14.80;84.60;;;;;;5035245;28;20041;-76
2022/05/13 05:17:59;;;;;;;8.93;3.67;;;14.70;83.80;;;;;;5052514;28;20029;-75
2022/05/13 05:20:24;;;;;;;11.23;4.38;;;14.90;84.30;;;;;;5034794;28;20029;-74
2022/05/13 05:22:50;;;;;;;8.30;4.38;;;15.00;84.00;;;;;;5035517;28;20093;-75
2022/05/13 05:25:18;;;;;;;16.85;5.00;;;15.00;82.70;;;;;;5052483;28;20063;-74
2022/05/13 05:27:44;;;;;;;13.25;4.30;;;15.10;82.40;;;;;;5052387;28;20033;-77
2022/05/13 05:30:11;;;;;;;9.10;3.95;;;15.10;82.00;;;;;;5052560;28;20394;-75
2022/05/13 05:32:40;;;;;;;14.55;3.65;;;15.10;82.00;;;;;;5052465;28;20029;-76
2022/05/13 05:35:09;;;;;;;8.40;4.00;;;15.10;81.30;;;;;;5052188;28;20096;-74
2022/05/13 05:37:34;;;;;;;7.53;3.70;;;15.20;81.60;;;;;;5052743;28;20079;-75
2022/05/13 05:40:00;;;;;;;15.32;4.10;;;15.10;81.60;;;;;;5052303;28;20103;-72
2022/05/13 05:42:26;;;;;;;8.23;3.45;;;15.10;81.40;;;;;;5034627;28;20359;-75
2022/05/13 05:44:52;;;;;;;8.38;3.40;;;15.30;81.10;;;;;;5052395;28;20078;-73
2022/05/13 05:47:21;;;;;;;9.75;3.40;;;15.30;81.00;;;;;;5052041;28;20354;-74
2022/05/13 05:49:47;;;;;;;9.50;3.67;;;15.30;80.80;;;;;;5052500;28;20027;-75
2022/05/13 05:52:12;;;;;;;7.93;3.80;;;15.40;80.80;;;;;;5052102;28;20025;-78
2022/05/13 05:57:36;;;;;;;9.50;3.50;;;15.40;80.90;;;;;;5007488;28;20362;-75
2022/05/13 06:00:05;;;;;;;14.27;3.55;;;15.50;80.30;;;;;;5051729;28;20033;-75
2022/05/13 06:02:31;;;;;;;5.72;2.67;;;15.50;80.20;;;;;;5053492;28;20430;-75
2022/05/13 06:04:57;;;;;;;7.82;2.63;;;15.50;78.70;;;;;;5036317;28;20032;-75
2022/05/13 06:07:23;;;;;;;9.00;2.83;;;15.50;79.20;;;;;;5053540;28;20083;-76
2022/05/13 06:09:48;;;;;;;10.82;2.80;;;15.50;78.40;;;;;;5053228;28;20041;-73
2022/05/13 06:12:15;;;;;;;7.50;2.75;;;15.60;78.30;;;;;;5052646;28;20444;-74
2022/05/13 06:14:40;;;;;;;10.40;2.40;;;15.50;77.60;;;;;;5034808;28;20163;-75
2022/05/13 06:17:07;;;;;;;10.07;3.00;;;15.80;77.50;;;;;;5051623;28;20434;-75
2022/05/13 06:19:33;;;;;;;6.95;2.67;;;15.70;77.10;;;;;;5034166;28;20036;-74
2022/05/13 06:21:58;;;;;;;6.05;2.40;;;15.80;77.10;;;;;;5051393;28;20054;-74
2022/05/13 06:24:24;;;;;;;9.25;2.55;;;15.80;77.00;;;;;;5034042;28;20049;-75
2022/05/13 06:26:51;;;;;;;10.55;2.20;;;15.90;76.40;;;;;;5051447;28;20524;-74
2022/05/13 06:29:19;;;;;;;8.27;2.33;;;15.80;76.90;;;;;;5051197;28;20025;-74
2022/05/13 06:31:44;;;;;;;9.35;2.38;;;15.90;76.30;;;;;;5052007;28;20021;-76
2022/05/13 06:34:10;;;;;;;9.43;3.40;;;15.90;76.30;;;;;;5051471;28;20075;-75
2022/05/13 06:36:36;;;;;;;6.47;2.80;;;15.90;76.40;;;;;;5051258;28;20041;-76
2022/05/13 06:39:03;;;;;;;8.38;2.58;;;15.90;76.40;;;;;;5033402;28;20377;-77
2022/05/13 06:41:28;;;;;;;11.35;3.58;;;15.90;76.30;;;;;;5052144;28;20032;-75
2022/05/13 06:43:54;;;;;;;9.43;2.95;;;16.10;76.20;;;;;;5035045;28;20033;-74
2022/05/13 06:46:20;;;;;;;13.30;3.33;;;15.90;76.10;;;;;;5034672;28;20516;-76
2022/05/13 06:48:46;;;;;;;8.70;3.05;;;16.00;76.40;;;;;;5051862;28;20033;-76
2022/05/13 06:51:12;;;;;;;10.20;3.10;;;16.00;76.10;;;;;;5051742;28;20411;-76
2022/05/13 06:53:38;;;;;;;8.15;3.53;;;15.80;76.60;;;;;;5034016;28;20037;-76
2022/05/13 06:56:06;;;;;;;10.43;3.70;;;15.70;77.70;;;;;;5034320;28;20028;-77
2022/05/13 06:58:32;;;;;;;6.03;2.80;;;15.90;77.20;;;;;;5035237;28;20048;-74
2022/05/13 07:00:57;;;;;;;10.10;2.95;;;16.00;77.30;;;;;;5051154;28;20039;-71
2022/05/13 07:03:23;;;;;;;9.90;3.25;;;16.10;77.30;;;;;;5051444;28;20144;-73
2022/05/13 07:05:49;;;;;;;10.52;3.13;;;15.90;77.00;;;;;;5051925;28;20033;-72
2022/05/13 07:08:15;;;;;;;10.55;2.63;;;15.90;77.30;;;;;;5051292;28;20057;-72
2022/05/13 07:10:41;;;;;;;11.18;3.00;;;16.10;77.40;;;;;;5051602;28;20033;-71
2022/05/13 07:13:14;;;;;;;9.50;2.88;;;16.10;77.00;;;;;;5050963;28;20103;-72
2022/05/13 07:15:40;;;;;;;13.65;2.50;;;16.10;77.00;;;;;;5050973;28;20040;-71
2022/05/13 07:18:06;;;;;;;12.52;3.25;;;16.20;77.00;;;;;;5049770;28;20091;-72
2022/05/13 07:20:32;;;;;;;6.47;2.33;;;16.20;76.70;;;;;;5050880;28;20116;-70
2022/05/13 07:22:58;;;;;;;10.05;2.63;;;16.00;76.80;;;;;;5051864;28;20100;-72
2022/05/13 07:25:24;;;;;;;4.65;1.73;;;16.10;76.70;;;;;;5054534;28;20044;-75
2022/05/13 07:27:50;;;;;;;13.25;2.60;;;16.20;76.60;;;;;;5037530;28;20036;-75
2022/05/13 07:30:16;;;;;;;9.75;2.65;;;16.10;76.70;;;;;;5055284;28;20051;-74
2022/05/13 07:32:42;;;;;;;9.88;2.60;;;16.10;76.40;;;;;;5055534;28;20052;-74
2022/05/13 07:35:08;;;;;;;8.48;2.50;;;16.30;76.80;;;;;;5054738;28;20437;-73
2022/05/13 07:37:35;;;;;;;7.15;2.42;;;16.50;76.70;;;;;;5038763;28;20021;-74
2022/05/13 07:42:45;;;;;;;12.68;2.80;;;16.60;75.70;;;;;;5054762;28;20399;-72
2022/05/13 07:45:11;;;;;;;6.40;2.78;;;16.80;75.50;;;;;;5055131;28;20057;-73
2022/05/13 07:47:39;;;;;;;9.00;2.20;;;16.90;75.30;;;;;;5055698;28;20481;-84
2022/05/13 07:50:07;;;;;;;10.85;3.40;;;17.30;75.20;;;;;;5055284;28;20052;-76
2022/05/13 07:52:32;;;;;;;;;;;17.70;74.20;;;;;;5037389;28;20041;-75
2022/05/13 07:54:58;;;;;;;6.60;2.67;;;17.90;73.30;;;;;;5054756;28;19913;-76
2022/05/13 07:57:24;;;;;;;9.75;3.03;;;17.50;72.60;;;;;;5054953;28;20033;-77
2022/05/13 08:02:34;;;;;;;8.82;2.30;;;17.40;73.50;;;;;;5054340;28;20055;-76
2022/05/13 08:05:00;;;;;;;8.68;2.35;;;17.50;73.80;;;;;;5055015;28;20081;-81
2022/05/13 08:07:26;;;;;;;10.88;2.78;;;17.80;74.00;;;;;;5037917;28;20114;-77
2022/05/13 08:09:51;;;;;;;16.00;3.00;;;17.80;73.90;;;;;;5035811;28;20068;-75
2022/05/13 08:12:17;;;;;;;12.55;2.72;;;18.20;73.30;;;;;;5055005;28;20025;-77
2022/05/13 08:14:42;;;;;;;8.45;1.98;;;18.80;73.00;;;;;;5054018;28;20045;-76
2022/05/13 08:17:08;;;;;;;16.48;3.35;;;19.30;70.90;;;;;;5036935;28;20017;-75
2022/05/13 08:19:34;;;;;;;7.18;2.08;;;19.70;69.30;;;;;;5056270;28;20632;-78
2022/05/13 08:22:00;;;;;;;8.07;1.80;;;19.50;68.40;;;;;;5055391;28;20585;-73
2022/05/13 08:24:25;;;;;;;11.07;2.95;;;19.60;69.20;;;;;;5055372;28;20033;-75
2022/05/13 08:26:51;;;;;;;15.55;2.95;;;19.30;69.40;;;;;;5055111;28;20039;-78
2022/05/13 08:29:16;;;;;;;17.02;2.55;;;18.90;69.40;;;;;;5055129;28;20029;-77
2022/05/13 08:31:42;;;;;;;11.93;2.60;;;18.60;70.50;;;;;;5055277;28;20025;-74
2022/05/13 08:34:09;;;;;;;11.32;2.42;;;18.80;71.00;;;;;;5054206;28;20422;-73
2022/05/13 08:36:34;;;;;;;11.43;2.58;;;18.90;70.00;;;;;;5036768;28;20132;-75
2022/05/13 08:39:00;;;;;;;10.65;2.65;;;18.40;71.20;;;;;;5054997;28;20520;-76
2022/05/13 08:41:46;;;;;;;11.38;2.83;;;18.70;71.10;;;;;;5055167;28;20029;-74
2022/05/13 08:44:14;;;;;;;11.43;2.38;;;18.60;71.20;;;;;;5055352;28;20021;-75
2022/05/13 08:46:55;;;;;;;13.02;2.53;;;18.50;70.60;;;;;;5037430;28;20025;-75
2022/05/13 08:49:33;;;;;;;15.63;3.40;;;18.20;70.90;;;;;;5036754;28;20650;-76
2022/05/13 08:55:03;;;;;;;7.80;2.47;;;17.80;72.10;;;;;;5053232;28;20508;-73
2022/05/13 08:57:33;;;;;;;8.77;2.55;;;17.10;73.10;;;;;;5052914;28;20090;-74
2022/05/13 09:00:08;;;;;;;13.30;2.95;;;17.00;74.30;;;;;;5053163;28;20037;-75
2022/05/13 09:02:37;;;;;;;9.18;2.90;;;17.40;74.00;;;;;;5052913;28;20029;-75
2022/05/13 09:05:08;;;;;;;11.27;2.83;;;17.10;74.70;;;;;;5052608;28;20029;-74
2022/05/13 09:07:34;;;;;;;12.68;2.97;;;17.30;74.90;;;;;;5051986;28;20053;-73
2022/05/13 09:10:03;;;;;;;12.07;3.03;;;17.40;74.70;;;;;;5052844;28;20113;-75
2022/05/13 09:12:43;;;;;;;12.38;2.50;;;17.30;75.10;;;;;;5053234;28;20458;-74
2022/05/13 09:15:19;;;;;;;13.70;2.92;;;17.00;76.00;;;;;;5053080;28;20467;-76
2022/05/13 09:17:53;;;;;;;10.40;2.80;;;17.10;76.30;;;;;;5053925;28;20079;-76
2022/05/13 09:20:22;;;;;;;11.63;2.42;;;17.50;75.80;;;;;;5052778;28;20017;-75
2022/05/13 09:22:52;;;;;;;12.35;2.95;;;18.10;75.30;;;;;;5054143;28;20090;-76
2022/05/13 09:25:42;;;;;;;10.27;2.35;;;18.10;73.50;;;;;;5054224;28;20036;-75
2022/05/13 09:28:11;;;;;;;16.50;3.08;;;18.30;72.80;;;;;;5053850;28;20102;-76
2022/05/13 09:30:39;;;;;;;9.25;2.67;;;18.70;71.70;;;;;;5053378;28;20032;-76
2022/05/13 09:33:23;;;;;;;13.77;4.15;;;18.50;71.10;;;;;;5052048;28;20041;-78
2022/05/13 09:35:58;;;;;;;15.85;2.53;;;19.00;71.50;;;;;;5052342;28;20030;-75
2022/05/13 09:38:29;;;;;;;11.60;2.88;;;19.40;70.50;;;;;;5034817;28;20452;-76
2022/05/13 09:41:05;;;;;;;13.27;2.72;;;20.50;68.70;;;;;;5054005;28;20516;-76
2022/05/13 09:43:49;;;;;;;15.30;2.70;;;21.30;65.20;;;;;;5052654;28;20052;-75
2022/05/13 09:46:31;;;;;;;7.88;2.50;;;21.10;65.40;;;;;;5052967;28;20478;-76
2022/05/13 09:48:59;;;;;;;11.40;2.63;;;21.40;64.60;;;;;;5053905;28;20033;-76
2022/05/13 09:51:25;;;;;;;;;;;21.10;63.50;;;;;;5054475;28;20060;-78
2022/05/13 09:54:11;;;;;;;10.98;2.50;;;21.50;63.30;;;;;;5053183;28;19979;-78
2022/05/13 09:56:46;;;;;;;10.43;2.65;;;21.60;61.80;;;;;;5053149;28;20457;-77
2022/05/13 09:59:19;;;;;;;13.70;3.53;;;22.20;62.00;;;;;;5053029;28;20150;-76
2022/05/13 10:01:46;;;;;;;12.25;2.50;;;22.50;60.90;;;;;;5053676;28;20036;-75
2022/05/13 10:04:18;;;;;;;10.13;2.20;;;21.40;60.60;;;;;;5053117;28;20335;-76
2022/05/13 10:06:44;;;;;;;8.77;1.90;;;20.40;59.60;;;;;;5036011;28;20029;-82
2022/05/13 10:15:11;;;;;;;9.50;1.95;;;19.70;62.10;;;;;;5052902;28;20044;-75
2022/05/13 10:17:45;;;;;;;7.30;2.25;;;20.10;62.30;;;;;;5053206;28;20055;-75
2022/05/13 10:20:27;;;;;;;6.93;1.70;;;20.10;61.90;;;;;;5052268;28;20029;-77
2022/05/13 10:23:09;;;;;;;11.52;2.75;;;20.30;61.70;;;;;;5052237;28;20017;-75
2022/05/13 10:25:46;;;;;;;14.70;3.47;;;20.20;61.80;;;;;;5052081;28;20037;-80
2022/05/13 10:28:17;;;;;;;10.85;3.75;;;20.40;61.50;;;;;;5050990;28;20033;-74
2022/05/13 10:31:04;;;;;;;12.07;2.75;;;20.60;61.60;;;;;;5033889;28;20362;-76
2022/05/13 10:33:49;;;;;;;9.10;2.10;;;20.50;60.40;;;;;;5050564;28;20037;-76
2022/05/13 10:36:14;;;;;;;7.28;2.80;;;20.90;60.70;;;;;;5051555;28;20094;-76
2022/05/13 10:38:55;;;;;;;6.60;2.00;;;21.10;60.00;;;;;;5051428;28;20107;-77
2022/05/13 10:41:45;;;;;;;9.18;2.55;;;21.00;59.80;;;;;;5051671;28;20037;-75
2022/05/13 10:44:32;;;;;;;8.48;2.20;;;20.80;59.70;;;;;;5051219;28;20033;-73
2022/05/13 10:47:01;;;;;;;9.30;2.08;;;20.50;59.00;;;;;;5050638;28;20557;-75
2022/05/13 10:49:34;;;;;;;7.75;2.60;;;20.10;59.50;;;;;;5051387;28;20482;-74
2022/05/13 10:52:22;;;;;;;7.75;2.22;;;20.20;59.70;;;;;;5051257;28;20555;-76
2022/05/13 10:54:56;;;;;;;7.50;2.15;;;19.60;61.20;;;;;;5051274;28;20033;-75
2022/05/13 10:57:43;;;;;;;8.57;2.17;;;20.10;61.40;;;;;;5051035;28;20089;-77
2022/05/13 11:00:20;;;;;;;17.33;2.33;;;20.30;60.60;;;;;;5033448;28;20033;-78
2022/05/13 11:03:12;;;;;;;12.35;2.13;;;20.20;59.90;;;;;;5033402;28;20052;-76
2022/05/13 11:05:45;;;;;;;5.55;1.65;;;20.10;60.40;;;;;;5050913;28;20032;-76
2022/05/13 11:08:42;;;;;;;6.90;1.95;;;20.40;60.60;;;;;;5049955;28;20025;-81
2022/05/13 11:11:25;;;;;;;9.45;2.10;;;20.60;60.00;;;;;;5050720;28;20114;-83
2022/05/13 11:14:13;;;;;;;9.63;2.35;;;20.30;59.80;;;;;;5052716;28;20029;-81
2022/05/13 11:17:24;;;;;;;6.40;1.85;;;20.20;60.40;;;;;;5035765;28;20056;-77
2022/05/13 11:20:02;;;;;;;6.28;1.60;;;20.20;60.80;;;;;;5052658;28;20091;-76
2022/05/13 11:22:38;;;;;;;14.30;2.00;;;20.00;61.00;;;;;;5035536;28;20108;-84
2022/05/13 11:25:58;;;;;;;5.68;1.45;;;19.70;61.40;;;;;;5033358;28;20455;-81
2022/05/13 11:28:51;;;;;;;9.25;1.90;;;19.40;62.20;;;;;;4973516;28;20053;-81
2022/05/13 11:31:17;;;;;;;5.00;1.92;;;19.30;61.70;;;;;;5006426;28;20094;-78
2022/05/13 11:34:22;;;;;;;6.70;2.05;;;19.40;61.70;;;;;;5051147;28;20037;-83
2022/05/13 11:37:04;;;;;;;7.53;1.92;;;19.30;62.20;;;;;;5051065;28;20053;-83
2022/05/13 11:40:05;;;;;;;11.00;2.00;;;19.30;62.10;;;;;;5052667;28;20025;-84
2022/05/13 11:43:20;;;;;;;4.18;1.52;;;19.30;62.30;;;;;;5034193;28;20029;-75
2022/05/13 11:46:17;;;;;;;7.32;1.83;;;19.50;62.40;;;;;;5042355;28;20051;-77
2022/05/13 11:48:46;;;;;;;7.00;1.75;;;19.40;62.40;;;;;;5034629;28;20041;-77
2022/05/13 11:51:19;;;;;;;11.65;4.32;;;19.10;63.20;;;;;;5052152;28;20435;-77
2022/05/13 11:53:48;;;;;;;13.55;4.57;;;19.00;63.30;;;;;;5034292;28;20051;-77
2022/05/13 11:56:26;;;;;;;12.35;4.97;;;19.00;63.80;;;;;;5052255;28;20104;-76
2022/05/13 11:59:02;;;;;;;10.52;2.85;;;18.90;64.60;;;;;;5052895;28;20035;-76
2022/05/13 12:01:34;;;;;;;11.52;2.33;;;18.80;65.20;;;;;;5052179;28;20362;-75
2022/05/13 12:04:12;;;;;;;9.93;1.67;;;19.00;65.00;;;;;;5052776;28;20037;-79
2022/05/13 12:06:49;;;;;;;13.50;2.00;;;19.20;64.80;;;;;;5034979;28;20326;-78
2022/05/13 12:09:36;;;;;;;7.63;2.28;;;19.50;64.40;;;;;;5052344;28;20048;-78
2022/05/13 12:12:25;;;;;;;8.63;1.92;;;19.00;63.70;;;;;;5038098;28;20053;-79
2022/05/13 12:15:09;;;;;;;7.65;2.03;;;19.10;64.00;;;;;;5037934;28;20048;-81
2022/05/13 12:18:14;;;;;;;4.70;2.30;;;19.20;63.90;;;;;;5055500;28;20585;-75
2022/05/13 12:20:52;;;;;;;6.65;1.83;;;19.40;64.00;;;;;;5015226;28;20025;-76
2022/05/13 12:23:29;;;;;;;;;;;19.10;63.80;;;;;;5038004;28;20418;-76
2022/05/13 12:26:00;;;;;;;;;;;19.10;64.40;;;;;;5055533;28;19991;-78
2022/05/13 12:28:30;;;;;;;8.88;1.65;;;19.00;64.10;;;;;;5053961;28;20254;-76
2022/05/13 12:30:55;;;;;;;8.07;1.85;;;18.80;63.50;;;;;;5054184;28;20047;-76
2022/05/13 12:33:23;;;;;;;11.52;1.88;;;18.80;64.00;;;;;;5055016;28;20506;-76
2022/05/13 12:39:04;;;;;;;7.03;1.85;;;19.20;63.30;;;;;;5055080;28;20047;-76
2022/05/13 12:41:42;;;;;;;9.45;1.52;;;19.10;63.50;;;;;;5035846;28;20032;-77
2022/05/13 12:44:14;;;;;;;6.13;1.65;;;19.20;63.80;;;;;;5037113;28;20032;-74
2022/05/13 12:46:48;;;;;;;9.07;2.28;;;18.80;64.20;;;;;;5037593;28;20026;-74
2022/05/13 12:49:25;;;;;;;8.25;2.28;;;18.90;64.90;;;;;;5067750;28;20394;-75
2022/05/13 12:52:14;;;;;;;9.68;2.17;;;18.90;64.40;;;;;;5073496;28;20044;-78
2022/05/13 12:55:18;;;;;;;7.25;2.00;;;18.90;64.80;;;;;;5055638;28;20133;-76
2022/05/13 12:57:53;;;;;;;10.55;2.10;;;19.00;64.60;;;;;;4994260;28;20342;-77
2022/05/13 13:00:36;;;;;;;8.63;1.73;;;19.10;64.00;;;;;;5073125;28;20087;-77
2022/05/13 13:03:07;;;;;;;6.50;1.67;;;19.30;63.80;;;;;;5072952;28;20033;-77
2022/05/13 13:05:36;;;;;;;8.48;1.50;;;19.40;63.50;;;;;;5073191;28;20077;-77
2022/05/13 13:08:24;;;;;;;6.68;1.60;;;19.50;63.60;;;;;;5055512;28;20032;-77
2022/05/13 13:10:56;;;;;;;9.63;2.30;;;19.60;63.90;;;;;;5073199;28;20036;-75
2022/05/13 13:13:29;;;;;;;6.65;1.90;;;19.70;63.00;;;;;;5072573;28;20082;-75
2022/05/13 13:16:00;;;;;;;7.75;1.83;;;19.60;63.00;;;;;;5072537;28;20091;-77
2022/05/13 13:18:33;;;;;;;8.02;2.35;;;19.60;62.90;;;;;;5055241;28;20033;-76
2022/05/13 13:21:04;;;;;;;7.15;2.33;;;19.60;63.10;;;;;;5072284;28;20048;-76
2022/05/13 13:23:37;;;;;;;8.63;2.00;;;19.40;63.60;;;;;;5072452;28;20025;-76
2022/05/13 13:26:08;;;;;;;8.23;2.00;;;19.50;63.40;;;;;;5072565;28;20020;-75
2022/05/13 13:28:40;;;;;;;6.88;2.13;;;19.80;63.60;;;;;;5072941;28;20056;-76
2022/05/13 13:31:23;;;;;;;13.80;2.95;;;19.70;63.50;;;;;;5072705;28;20343;-79
2022/05/13 13:33:55;;;;;;;7.70;1.92;;;19.90;63.20;;;;;;5065425;28;20033;-79